Time;durP1;ratioP1;P1;durP2;ratioP2;P2;SDS_P1;SDS_P2;PMS_P1;PMS_P2;Temp;Humidity;BMP_temperature;BMP_pressure;BME280_temperature;BME280_humidity;BME280_pressure;Samples;Min_cycle;Max_cycle;Signal;HPM_P1;HPM_P2
2021/01/09 00:02:07;;;;;;;26.83;16.66;;;0.70;99.90;;;6.01;89.59;102035.75;1665889;75;24415;-76
2021/01/09 00:04:25;;;;;;;26.49;16.48;;;0.70;99.90;;;5.96;88.91;102040.20;1665452;75;24511;-76
2021/01/09 00:06:45;;;;;;;23.80;15.76;;;0.70;99.90;;;6.04;89.13;102035.90;1659500;75;24469;-75
2021/01/09 00:09:02;;;;;;;26.77;16.07;;;0.80;99.90;;;6.00;88.94;102039.17;1661290;75;24805;-75
2021/01/09 00:11:19;;;;;;;25.32;16.20;;;0.80;99.90;;;5.98;89.07;102046.34;1657993;75;24871;-75
2021/01/09 00:13:35;;;;;;;21.83;14.54;;;0.80;99.90;;;6.03;89.19;102048.36;1661652;75;24437;-74
2021/01/09 00:15:53;;;;;;;23.68;15.01;;;0.80;99.90;;;5.94;88.32;102051.77;1661081;75;25079;-74
2021/01/09 00:18:11;;;;;;;21.41;14.31;;;0.70;99.90;;;5.84;87.74;102044.80;1658262;75;24583;-74
2021/01/09 00:20:27;;;;;;;23.37;15.44;;;0.70;99.90;;;5.86;87.46;102051.80;1665390;75;24353;-74
2021/01/09 00:22:44;;;;;;;28.12;15.45;;;0.70;99.90;;;6.01;87.85;102051.66;1653981;75;25045;-74
2021/01/09 00:25:03;;;;;;;27.57;16.60;;;0.70;99.90;;;6.18;88.09;102053.77;1660138;75;24985;-73
2021/01/09 00:27:19;;;;;;;26.17;17.11;;;0.80;99.90;;;6.20;88.17;102052.16;1663118;75;24527;-75
2021/01/09 00:29:36;;;;;;;24.63;16.08;;;0.80;99.90;;;6.31;88.64;102049.23;1658367;75;24458;-75
2021/01/09 00:31:54;;;;;;;25.70;16.68;;;0.90;99.90;;;6.38;88.43;102051.70;1657149;75;24414;-75
2021/01/09 00:34:10;;;;;;;24.09;16.20;;;1.00;99.90;;;6.37;88.37;102048.64;1660041;75;24479;-75
2021/01/09 00:36:27;;;;;;;24.77;15.97;;;1.00;99.90;;;6.46;88.38;102047.77;1661935;75;24643;-75
2021/01/09 00:38:43;;;;;;;24.20;15.42;;;1.10;99.90;;;6.43;88.59;102054.99;1672367;75;24478;-74
2021/01/09 00:40:58;;;;;;;25.83;16.20;;;1.10;99.90;;;6.43;88.34;102053.70;1654655;75;24512;-74
2021/01/09 00:43:14;;;;;;;23.51;15.01;;;1.20;99.90;;;6.47;88.71;102056.89;1658246;75;24474;-74
2021/01/09 00:45:31;;;;;;;23.37;15.39;;;1.20;99.90;;;6.55;88.48;102062.41;1667340;75;24872;-75
2021/01/09 00:47:47;;;;;;;22.70;15.35;;;1.30;99.90;;;6.57;88.57;102060.39;1655082;75;24527;-75
2021/01/09 00:50:05;;;;;;;21.70;14.80;;;1.30;99.90;;;6.49;88.06;102063.03;1656839;75;24495;-74
2021/01/09 00:52:20;;;;;;;21.08;14.69;;;1.30;99.90;;;6.46;88.08;102065.48;1651012;75;24450;-74
2021/01/09 00:54:37;;;;;;;22.05;14.59;;;1.30;99.90;;;6.35;88.09;102074.44;1660642;75;24512;-74
2021/01/09 00:56:55;;;;;;;18.76;13.95;;;1.20;99.90;;;6.26;88.19;102077.86;1659925;75;24489;-74
2021/01/09 00:59:14;;;;;;;19.61;13.65;;;1.10;99.90;;;6.18;87.35;102075.75;1650950;75;24867;-74
2021/01/09 01:01:30;;;;;;;17.98;12.74;;;1.00;99.90;;;6.09;87.79;102075.79;1656528;75;24444;-74
2021/01/09 01:03:46;;;;;;;19.30;13.39;;;0.90;99.90;;;6.02;87.57;102077.59;1661595;75;24442;-74
2021/01/09 01:06:02;;;;;;;20.01;13.55;;;0.90;99.90;;;5.97;87.82;102071.73;1655198;75;24496;-74
2021/01/09 01:08:18;;;;;;;19.74;13.90;;;0.80;99.90;;;5.90;87.73;102074.81;1655685;75;24505;-74
2021/01/09 01:10:34;;;;;;;20.49;13.96;;;0.70;99.90;;;5.92;88.01;102079.66;1655199;75;24935;-73
2021/01/09 01:12:52;;;;;;;18.43;13.67;;;0.70;99.90;;;5.87;88.11;102076.86;1677548;75;24449;-74
2021/01/09 01:15:13;;;;;;;20.82;14.03;;;0.60;99.90;;;5.78;87.95;102083.23;1655405;75;24978;-74
2021/01/09 01:17:29;;;;;;;21.16;15.40;;;0.60;99.90;;;5.72;88.30;102085.09;1661820;75;24949;-74
2021/01/09 01:19:45;;;;;;;23.06;14.90;;;0.50;99.90;;;5.73;88.37;102083.02;1653309;75;24516;-74
2021/01/09 01:22:01;;;;;;;22.01;14.68;;;0.50;99.90;;;5.72;88.50;102084.23;1660678;75;24489;-75
2021/01/09 01:24:17;;;;;;;22.28;14.16;;;0.50;99.90;;;5.70;88.53;102089.72;1667565;75;25015;-74
2021/01/09 01:26:34;;;;;;;25.53;15.29;;;0.50;99.90;;;5.69;88.59;102094.42;1671773;75;24866;-74
2021/01/09 01:28:50;;;;;;;23.90;15.26;;;0.40;99.90;;;5.70;88.71;102094.89;1658830;75;24936;-74
2021/01/09 01:31:07;;;;;;;23.51;15.61;;;0.40;99.90;;;5.68;88.74;102107.73;1665779;75;24666;-75
2021/01/09 01:33:23;;;;;;;23.61;15.46;;;0.30;99.90;;;5.64;88.84;102106.22;1666075;75;24932;-74
2021/01/09 01:35:40;;;;;;;24.54;15.82;;;0.30;99.90;;;5.68;88.93;102103.86;1657266;75;24868;-74
2021/01/09 01:37:57;;;;;;;24.70;16.20;;;0.30;99.90;;;5.64;88.95;102108.37;1655933;75;24363;-74
2021/01/09 01:40:16;;;;;;;22.96;14.66;;;0.30;99.90;;;5.61;89.41;102113.39;1652791;75;24516;-74
2021/01/09 01:42:35;;;;;;;25.41;15.04;;;0.30;99.90;;;5.60;89.13;102107.75;1656699;76;24541;-74
2021/01/09 01:44:50;;;;;;;25.11;14.81;;;0.30;99.90;;;5.63;89.30;102114.36;1670747;75;24441;-74
2021/01/09 01:47:08;;;;;;;22.02;14.37;;;0.30;99.90;;;5.64;89.29;102113.97;1663463;75;24497;-74
2021/01/09 01:49:24;;;;;;;24.89;15.11;;;0.30;99.90;;;5.60;89.15;102116.80;1663700;75;24429;-75
2021/01/09 01:51:40;;;;;;;25.11;15.62;;;0.30;99.90;;;5.62;89.33;102119.45;1663152;75;24443;-74
2021/01/09 01:53:57;;;;;;;23.44;14.78;;;0.30;99.90;;;5.55;88.89;102122.52;1664928;75;24508;-74
2021/01/09 01:56:13;;;;;;;24.96;16.50;;;0.30;99.90;;;5.61;89.18;102122.44;1656421;75;24497;-74
2021/01/09 01:58:28;;;;;;;23.96;15.70;;;0.30;99.90;;;5.62;89.26;102124.63;1652168;75;24483;-75
2021/01/09 02:00:47;;;;;;;25.75;15.58;;;0.30;99.90;;;5.60;89.40;102128.81;1654910;75;24913;-75
2021/01/09 02:03:04;;;;;;;25.16;15.60;;;0.30;99.90;;;5.59;89.21;102120.59;1652790;75;24450;-74
2021/01/09 02:05:25;;;;;;;26.30;15.55;;;0.30;99.90;;;5.58;89.33;102120.12;1659220;75;25057;-74
2021/01/09 02:07:45;;;;;;;21.46;14.48;;;0.30;99.90;;;5.55;89.29;102124.71;1667121;75;24436;-75
2021/01/09 02:10:03;;;;;;;20.70;14.16;;;0.20;99.90;;;5.47;88.62;102125.15;1661551;75;24901;-74
2021/01/09 02:12:24;;;;;;;21.78;14.51;;;0.20;99.90;;;5.37;88.75;102122.89;1666582;75;24390;-75
2021/01/09 02:14:45;;;;;;;22.21;14.23;;;0.10;99.90;;;5.41;89.03;102129.58;1658328;75;24512;-74
2021/01/09 02:17:03;;;;;;;27.41;16.08;;;0.10;99.90;;;5.36;88.43;102126.30;1652028;75;24432;-74
2021/01/09 02:19:25;;;;;;;28.38;15.94;;;0.10;99.90;;;5.44;89.24;102127.55;1653241;75;24511;-74
2021/01/09 02:21:45;;;;;;;27.57;15.96;;;0.10;99.90;;;5.51;89.23;102130.55;1671433;75;24574;-74
2021/01/09 02:24:00;;;;;;;27.35;16.27;;;0.10;99.90;;;5.55;89.24;102138.02;1656999;75;24445;-74
2021/01/09 02:26:17;;;;;;;25.36;15.97;;;0.10;99.90;;;5.53;88.99;102134.07;1657760;75;24993;-75
2021/01/09 02:28:36;;;;;;;27.51;16.41;;;0.10;99.90;;;5.48;88.94;102136.85;1651922;75;24457;-74
2021/01/09 02:30:56;;;;;;;26.20;16.26;;;0.10;99.90;;;5.50;89.04;102134.34;1653275;75;24489;-76
2021/01/09 02:33:14;;;;;;;29.04;16.93;;;0.10;99.90;;;5.52;89.52;102136.19;1661606;75;24580;-74
2021/01/09 02:35:34;;;;;;;29.07;17.11;;;0.10;99.90;;;5.49;89.36;102133.84;1652732;75;24421;-73
2021/01/09 02:37:51;;;;;;;25.93;16.54;;;0.10;99.90;;;5.51;89.56;102139.59;1665408;75;24514;-75
2021/01/09 02:40:12;;;;;;;30.49;17.14;;;0.10;99.90;;;5.49;89.73;102139.01;1663255;75;24527;-75
2021/01/09 02:42:28;;;;;;;27.28;17.16;;;0.10;99.90;;;5.41;89.68;102137.72;1661850;75;24529;-75
2021/01/09 02:44:45;;;;;;;28.29;17.36;;;0.10;99.90;;;5.43;89.75;102133.14;1661871;75;25850;-75
2021/01/09 02:47:01;;;;;;;26.43;16.07;;;0.20;99.90;;;5.44;89.80;102132.31;1652838;75;24593;-75
2021/01/09 02:49:18;;;;;;;30.25;16.79;;;0.10;99.90;;;5.41;89.70;102137.33;1670194;75;24523;-74
2021/01/09 02:51:36;;;;;;;26.42;16.34;;;0.20;99.90;;;5.33;89.62;102142.50;1659408;75;24480;-74
2021/01/09 02:53:52;;;;;;;27.82;16.21;;;0.10;99.90;;;5.35;89.78;102142.19;1653756;75;24438;-76
2021/01/09 02:56:08;;;;;;;27.75;16.08;;;0.10;99.90;;;5.34;89.80;102149.42;1665352;75;24511;-74
2021/01/09 02:58:25;;;;;;;27.16;16.49;;;0.10;99.90;;;5.32;89.57;102143.71;1650719;75;24484;-74
2021/01/09 03:00:41;;;;;;;26.43;16.10;;;0.10;99.90;;;5.28;89.55;102141.80;1659310;75;24997;-75
2021/01/09 03:02:57;;;;;;;24.94;15.95;;;0.00;99.90;;;5.25;89.45;102145.51;1652439;75;24449;-74
2021/01/09 03:05:15;;;;;;;27.11;15.80;;;0.00;99.90;;;5.20;89.03;102147.83;1669246;75;24472;-75
2021/01/09 03:07:30;;;;;;;28.90;16.80;;;0.00;99.90;;;5.20;89.40;102152.13;1653798;75;24497;-74
2021/01/09 03:09:46;;;;;;;29.22;15.88;;;0.00;99.90;;;5.23;89.57;102150.56;1653598;75;24524;-74
2021/01/09 03:12:02;;;;;;;26.50;16.63;;;0.10;99.90;;;5.31;89.47;102149.27;1665491;75;24435;-75
2021/01/09 03:14:20;;;;;;;24.18;16.17;;;0.20;99.90;;;5.34;89.15;102148.14;1658915;75;24898;-75
2021/01/09 03:16:37;;;;;;;24.01;15.81;;;0.30;99.90;;;5.34;89.36;102149.86;1661515;75;24481;-75
2021/01/09 03:18:53;;;;;;;27.10;16.73;;;0.20;99.90;;;5.34;89.54;102149.86;1661397;75;24449;-74
2021/01/09 03:21:10;;;;;;;25.72;15.77;;;0.20;99.90;;;5.30;89.74;102153.06;1661240;75;24871;-74
2021/01/09 03:23:26;;;;;;;27.51;16.08;;;0.10;99.90;;;5.24;89.65;102153.65;1671764;75;24441;-75
2021/01/09 03:25:42;;;;;;;23.84;14.96;;;0.10;99.90;;;5.21;89.78;102157.37;1659767;75;24525;-74
2021/01/09 03:28:00;;;;;;;28.12;16.68;;;0.00;99.90;;;5.13;89.68;102156.07;1658834;75;24844;-74
2021/01/09 03:30:19;;;;;;;26.65;17.25;;;0.00;99.90;;;5.15;89.98;102149.70;1662027;75;24501;-74
2021/01/09 03:32:35;;;;;;;23.49;14.73;;;0.00;99.90;;;5.11;89.74;102147.73;1657940;75;24469;-74
2021/01/09 03:34:51;;;;;;;24.43;16.25;;;-0.10;99.90;;;5.02;89.43;102146.87;1656880;75;24426;-73
2021/01/09 03:37:07;;;;;;;23.70;14.99;;;-0.10;99.90;;;5.08;89.83;102154.93;1661505;75;24516;-73
2021/01/09 03:39:36;;;;;;;26.13;15.85;;;-0.10;99.90;;;5.07;89.54;102154.85;1656642;75;24466;-73
2021/01/09 03:41:52;;;;;;;25.38;15.41;;;-0.10;99.90;;;5.10;89.57;102156.30;1668742;75;24956;-75
2021/01/09 03:44:09;;;;;;;22.06;14.41;;;-0.10;99.90;;;5.08;89.82;102160.09;1652371;75;24472;-75
2021/01/09 03:46:24;;;;;;;23.18;14.59;;;-0.10;99.90;;;5.07;89.75;102161.30;1670961;75;24480;-73
2021/01/09 03:48:41;;;;;;;23.20;14.64;;;-0.10;99.90;;;5.02;89.54;102152.42;1662714;75;24446;-74
2021/01/09 03:50:58;;;;;;;23.88;15.68;;;-0.10;99.90;;;5.05;89.65;102154.77;1658546;75;24603;-74
2021/01/09 03:53:16;;;;;;;26.69;15.79;;;-0.10;99.90;;;5.07;89.90;102151.87;1657844;75;24469;-74
2021/01/09 03:55:32;;;;;;;25.47;16.49;;;-0.10;99.90;;;5.08;89.93;102151.06;1655360;75;24509;-75
2021/01/09 03:57:48;;;;;;;25.37;16.12;;;-0.20;99.90;;;5.02;89.88;102155.00;1653538;75;24449;-76
2021/01/09 04:00:18;;;;;;;25.22;16.00;;;-0.20;99.90;;;5.04;89.82;102153.01;1661295;75;24498;-74
2021/01/09 04:02:34;;;;;;;23.66;15.17;;;-0.20;99.90;;;5.00;89.78;102157.90;1660765;75;24792;-74
2021/01/09 04:04:51;;;;;;;27.59;16.31;;;-0.20;99.90;;;4.98;89.95;102164.70;1661753;75;24444;-75
2021/01/09 04:07:07;;;;;;;24.72;15.75;;;-0.20;99.90;;;4.99;90.14;102167.36;1665425;75;24467;-74
2021/01/09 04:09:24;;;;;;;20.54;13.88;;;-0.20;99.90;;;4.96;89.81;102163.33;1654704;75;24449;-74
2021/01/09 04:11:41;;;;;;;23.24;14.90;;;-0.20;99.90;;;4.80;89.14;102158.14;1657830;75;24432;-74
2021/01/09 04:13:57;;;;;;;24.46;16.24;;;-0.30;99.90;;;4.84;89.54;102166.94;1653030;75;24469;-74
2021/01/09 04:16:13;;;;;;;24.80;16.85;;;-0.30;99.90;;;4.94;89.78;102161.05;1650391;75;24493;-74
2021/01/09 04:18:32;;;;;;;26.36;15.95;;;-0.30;99.90;;;4.86;89.38;102163.62;1671504;75;24503;-74
2021/01/09 04:20:48;;;;;;;25.28;17.10;;;-0.30;99.90;;;4.88;89.49;102159.83;1655458;75;24888;-73
2021/01/09 04:23:04;;;;;;;24.12;16.51;;;-0.30;99.90;;;4.92;89.64;102163.05;1658328;75;24891;-74
2021/01/09 04:25:20;;;;;;;25.96;16.43;;;-0.40;99.90;;;4.96;89.63;102167.59;1657923;75;24432;-74
2021/01/09 04:27:36;;;;;;;28.03;16.95;;;-0.40;99.90;;;4.91;89.16;102162.58;1654477;75;24853;-75
2021/01/09 04:29:52;;;;;;;26.45;16.44;;;-0.30;99.90;;;4.87;89.35;102171.84;1661874;75;24541;-75
2021/01/09 04:32:08;;;;;;;27.10;17.64;;;-0.30;99.90;;;4.88;89.32;102168.47;1660619;75;25064;-75
2021/01/09 04:34:26;;;;;;;30.07;17.52;;;-0.30;99.90;;;4.94;89.78;102171.38;1659030;75;24358;-75
2021/01/09 04:36:42;;;;;;;26.79;17.69;;;-0.30;99.90;;;4.97;89.79;102171.54;1660974;75;24925;-75
2021/01/09 04:38:58;;;;;;;26.97;17.10;;;-0.30;99.90;;;5.04;89.98;102175.34;1660661;75;24948;-76
2021/01/09 04:41:17;;;;;;;28.59;17.93;;;-0.20;99.90;;;5.03;89.78;102169.67;1663325;75;24527;-76
2021/01/09 04:43:34;;;;;;;25.79;17.63;;;-0.20;99.90;;;5.01;89.70;102177.77;1679993;75;24444;-74
2021/01/09 04:45:50;;;;;;;28.30;17.52;;;-0.20;99.90;;;5.05;89.79;102182.27;1654827;75;24963;-73
2021/01/09 04:48:08;;;;;;;34.35;18.73;;;-0.20;99.90;;;5.06;89.92;102182.77;1654760;75;24542;-73
2021/01/09 04:50:26;;;;;;;50.99;20.90;;;-0.10;99.90;;;5.04;89.60;102181.80;1655600;75;24528;-75
2021/01/09 04:52:43;;;;;;;123.26;24.25;;;-0.10;99.90;;;5.03;90.10;102183.87;1656964;75;24509;-75
2021/01/09 04:55:00;;;;;;;119.26;24.24;;;-0.10;99.90;;;4.94;89.89;102182.09;1661155;75;24453;-74
2021/01/09 04:57:17;;;;;;;125.64;24.34;;;-0.10;99.90;;;4.82;89.16;102182.30;1662752;75;24492;-74
2021/01/09 04:59:36;;;;;;;99.81;22.04;;;0.00;99.90;;;4.86;89.29;102185.55;1656941;75;24505;-74
2021/01/09 05:01:54;;;;;;;115.69;20.70;;;-0.10;99.90;;;4.72;89.64;102185.59;1650625;75;24923;-74
2021/01/09 05:04:11;;;;;;;114.70;21.71;;;-0.10;99.90;;;4.74;89.56;102181.03;1659314;75;24532;-75
2021/01/09 05:06:27;;;;;;;103.12;20.31;;;-0.10;99.90;;;4.68;89.57;102180.66;1666237;75;24440;-75
2021/01/09 05:08:44;;;;;;;145.26;23.55;;;-0.10;99.90;;;4.67;90.03;102184.06;1669558;75;24860;-75
2021/01/09 05:11:00;;;;;;;95.38;19.99;;;-0.10;99.90;;;4.65;89.57;102177.91;1660232;75;25008;-74
2021/01/09 05:13:19;;;;;;;90.35;19.41;;;-0.20;99.90;;;4.65;90.28;102185.27;1666926;75;24491;-75
2021/01/09 05:15:41;;;;;;;76.26;19.21;;;-0.20;99.90;;;4.59;90.40;102181.45;1661050;75;24925;-75
2021/01/09 05:17:58;;;;;;;114.91;19.13;;;-0.20;99.90;;;4.53;90.62;102183.31;1660268;75;24453;-74
2021/01/09 05:20:17;;;;;;;90.60;19.48;;;-0.20;99.90;;;4.58;90.43;102188.72;1664344;75;24435;-75
2021/01/09 05:22:35;;;;;;;88.11;18.76;;;-0.20;99.90;;;4.55;90.31;102189.84;1668894;75;24444;-73
2021/01/09 05:24:56;;;;;;;94.51;18.49;;;-0.20;99.90;;;4.63;90.43;102195.89;1667404;75;24400;-75
2021/01/09 05:27:15;;;;;;;107.85;19.38;;;-0.20;99.90;;;4.56;89.93;102194.18;1665387;75;24497;-75
2021/01/09 05:29:33;;;;;;;112.95;19.93;;;-0.20;99.90;;;4.65;89.94;102197.27;1657631;75;24449;-75
2021/01/09 05:31:49;;;;;;;79.86;18.73;;;-0.20;99.90;;;4.62;89.87;102200.97;1667305;75;24905;-74
2021/01/09 05:34:08;;;;;;;86.41;18.00;;;-0.20;99.90;;;4.56;89.88;102199.34;1664973;75;24866;-75
2021/01/09 05:36:25;;;;;;;74.40;17.15;;;-0.30;99.90;;;4.57;90.08;102203.30;1656422;75;24487;-75
2021/01/09 05:38:45;;;;;;;74.33;18.93;;;-0.30;99.90;;;4.56;90.13;102203.20;1662416;75;24446;-75
2021/01/09 05:41:07;;;;;;;63.68;17.26;;;-0.30;99.90;;;4.61;90.05;102209.52;1657695;75;24445;-74
2021/01/09 05:43:23;;;;;;;76.73;17.58;;;-0.30;99.90;;;4.62;89.66;102208.70;1659379;75;24508;-74
2021/01/09 05:45:40;;;;;;;86.09;19.03;;;-0.30;99.90;;;4.56;89.26;102214.42;1650243;75;24452;-75
2021/01/09 05:47:57;;;;;;;86.60;19.63;;;-0.40;99.90;;;4.58;89.32;102208.92;1666554;75;24516;-75
2021/01/09 05:50:15;;;;;;;107.04;22.35;;;-0.40;99.90;;;4.49;89.34;102218.73;1661706;75;24889;-74
2021/01/09 05:52:33;;;;;;;106.18;20.08;;;-0.40;99.90;;;4.51;89.94;102211.98;1654003;75;24563;-74
2021/01/09 05:54:49;;;;;;;100.39;20.54;;;-0.40;99.90;;;4.57;89.88;102211.42;1656115;75;24592;-75
2021/01/09 05:57:06;;;;;;;106.96;20.70;;;-0.40;99.90;;;4.60;89.69;102215.06;1663055;75;24483;-74
2021/01/09 05:59:27;;;;;;;119.54;23.20;;;-0.30;99.90;;;4.64;89.82;102213.16;1664885;75;24947;-74
2021/01/09 06:01:47;;;;;;;89.34;20.40;;;-0.30;99.90;;;4.68;89.34;102216.39;1658381;75;24584;-75
2021/01/09 06:04:06;;;;;;;116.96;22.16;;;-0.30;99.90;;;4.60;89.12;102211.20;1660955;75;24465;-75
2021/01/09 06:06:37;;;;;;;105.93;23.49;;;-0.30;99.90;;;4.65;89.36;102214.93;1675617;75;24969;-75
2021/01/09 06:08:58;;;;;;;96.76;20.30;;;-0.40;99.90;;;4.76;89.40;102214.65;1653470;75;24489;-76
2021/01/09 06:11:19;;;;;;;111.10;23.13;;;-0.40;99.90;;;4.51;88.17;102217.53;1662035;75;24946;-74
2021/01/09 06:13:38;;;;;;;101.79;19.40;;;-0.40;99.90;;;4.48;88.45;102219.55;1642440;76;24598;-74
2021/01/09 06:15:58;;;;;;;103.27;21.50;;;-0.40;99.90;;;4.45;87.95;102227.11;1651405;75;24436;-75
2021/01/09 06:18:16;;;;;;;131.36;23.02;;;-0.40;99.90;;;4.50;88.08;102228.66;1656361;75;24535;-76
2021/01/09 06:20:34;;;;;;;135.24;22.46;;;-0.40;99.90;;;4.49;88.52;102229.05;1657219;75;24443;-76
2021/01/09 06:22:52;;;;;;;118.76;21.64;;;-0.40;99.90;;;4.47;88.30;102232.36;1655657;75;24442;-75
2021/01/09 06:25:12;;;;;;;152.97;25.31;;;-0.40;99.90;;;4.40;88.74;102234.98;1656983;75;24925;-75
2021/01/09 06:27:33;;;;;;;122.37;23.33;;;-0.40;99.90;;;4.31;88.81;102237.44;1657866;75;24441;-76
2021/01/09 06:29:55;;;;;;;132.14;20.50;;;-0.40;99.90;;;4.37;89.02;102241.65;1665570;75;24890;-75
2021/01/09 06:32:16;;;;;;;111.50;20.33;;;-0.40;99.90;;;4.34;88.37;102239.80;1652777;75;24473;-75
2021/01/09 06:34:36;;;;;;;103.91;19.52;;;-0.50;99.90;;;4.31;87.99;102237.05;1678779;75;24905;-75
2021/01/09 06:36:59;;;;;;;96.02;19.05;;;-0.50;99.90;;;4.22;89.22;102237.78;1665774;75;24904;-75
2021/01/09 06:39:16;;;;;;;80.06;19.70;;;-0.50;99.90;;;4.33;88.99;102248.31;1651618;75;24454;-75
2021/01/09 06:41:36;;;;;;;74.25;18.55;;;-0.50;99.90;;;4.29;88.96;102238.64;1667848;75;24503;-75
2021/01/09 06:43:54;;;;;;;68.77;17.92;;;-0.50;99.90;;;4.25;89.13;102240.95;1667830;75;24474;-75
2021/01/09 06:46:12;;;;;;;106.68;19.06;;;-0.60;99.90;;;4.17;88.76;102243.06;1665704;75;24457;-75
2021/01/09 06:48:31;;;;;;;84.10;19.97;;;-0.60;99.90;;;4.26;88.91;102241.43;1668767;75;24452;-76
2021/01/09 06:50:48;;;;;;;88.06;19.35;;;-0.60;99.90;;;4.20;89.24;102235.54;1652593;75;24500;-75
2021/01/09 06:53:06;;;;;;;116.21;20.65;;;-0.60;99.90;;;4.28;89.13;102248.86;1665213;75;24478;-75
2021/01/09 06:55:57;;;;;;;94.96;19.72;;;-0.60;99.90;;;4.16;89.15;102249.42;1665175;75;24441;-76
2021/01/09 06:58:16;;;;;;;110.72;19.30;;;-0.70;99.90;;;4.20;89.36;102251.00;1664566;75;24480;-73
2021/01/09 07:00:33;;;;;;;94.15;20.11;;;-0.70;99.90;;;4.26;89.18;102248.77;1663980;75;24912;-74
2021/01/09 07:03:10;;;;;;;137.29;24.65;;;-0.70;99.90;;;4.31;89.37;102251.23;1661836;75;24648;-74
2021/01/09 07:05:26;;;;;;;103.50;20.53;;;-0.70;99.90;;;4.34;89.48;102254.37;1658172;75;24446;-75
2021/01/09 07:07:55;;;;;;;107.27;20.90;;;-0.70;99.90;;;4.25;88.51;102255.13;1662147;75;24445;-75
2021/01/09 07:10:26;;;;;;;113.99;20.10;;;-0.60;99.90;;;4.23;88.83;102256.73;1677353;75;24488;-75
2021/01/09 07:16:09;;;;;;;59.00;16.15;;;-0.70;99.90;;;4.54;88.39;102252.12;1802657;70;25388;-75
2021/01/09 07:18:27;;;;;;;81.64;19.41;;;-0.70;99.90;;;4.06;89.56;102260.02;1774935;71;24512;-75
2021/01/09 07:20:48;;;;;;;88.16;20.10;;;-0.70;99.90;;;3.96;89.02;102263.73;1770611;71;24491;-75
2021/01/09 07:23:07;;;;;;;86.09;19.86;;;-0.80;99.90;;;3.99;89.76;102267.78;1791697;71;25005;-75
2021/01/09 07:25:31;;;;;;;112.89;22.02;;;-0.80;99.90;;;3.97;89.91;102264.59;1773585;71;24835;-75
2021/01/09 07:27:50;;;;;;;101.69;20.87;;;-0.80;99.90;;;3.90;89.84;102273.68;1779169;70;25123;-76
2021/01/09 07:30:19;;;;;;;83.43;18.72;;;-0.80;99.90;;;3.94;89.71;102270.47;1781114;70;24414;-74
2021/01/09 07:32:47;;;;;;;87.31;18.90;;;-0.80;99.90;;;3.99;89.85;102272.93;1770161;71;24508;-74
2021/01/09 07:35:09;;;;;;;60.81;18.18;;;-0.80;99.90;;;4.01;90.05;102280.36;1764514;72;24930;-75
2021/01/09 07:37:26;;;;;;;76.95;18.08;;;-0.80;99.90;;;4.01;89.53;102270.05;1767246;71;24509;-75
2021/01/09 07:39:59;;;;;;;80.53;18.29;;;-0.80;99.90;;;4.03;89.31;102271.01;1790226;70;24484;-75
2021/01/09 07:42:31;;;;;;;76.91;20.25;;;-0.80;99.90;;;4.14;89.64;102269.09;1787529;71;24421;-76
2021/01/09 07:45:08;;;;;;;72.90;19.67;;;-0.80;99.90;;;4.05;89.61;102277.54;1798663;71;24448;-76
2021/01/09 07:47:32;;;;;;;54.94;17.77;;;-0.70;99.90;;;4.23;89.73;102283.41;1750719;71;24440;-75
2021/01/09 07:49:55;;;;;;;54.50;18.29;;;-0.70;99.90;;;4.28;90.15;102282.38;1785492;71;24612;-75
2021/01/09 07:52:12;;;;;;;43.31;17.90;;;-0.60;99.90;;;4.32;89.79;102286.52;1785074;71;24392;-74
2021/01/09 07:54:40;;;;;;;42.89;17.10;;;-0.60;99.90;;;4.40;89.60;102286.95;1792936;71;24444;-76
2021/01/09 07:56:56;;;;;;;35.92;16.57;;;-0.60;99.90;;;4.26;89.97;102299.44;1794041;71;24878;-76
2021/01/09 07:59:14;;;;;;;43.21;16.36;;;-0.50;99.90;;;4.31;90.00;102295.06;1785121;71;24893;-77
2021/01/09 08:01:30;;;;;;;30.72;16.10;;;-0.50;99.90;;;4.38;89.87;102296.27;1784514;71;24492;-74
2021/01/09 08:03:48;;;;;;;23.05;14.54;;;-0.50;99.90;;;4.51;89.64;102289.74;1787675;71;25256;-73
2021/01/09 08:06:08;;;;;;;25.65;15.15;;;-0.40;99.90;;;4.39;89.10;102295.07;1782778;71;24783;-75
2021/01/09 08:08:25;;;;;;;21.83;14.99;;;-0.40;99.90;;;4.51;89.24;102296.19;1783962;71;24452;-75
2021/01/09 08:10:42;;;;;;;28.90;15.19;;;-0.40;99.90;;;4.52;89.34;102296.28;1789654;71;24673;-74
2021/01/09 08:13:01;;;;;;;21.33;15.78;;;-0.40;99.90;;;4.58;89.12;102304.78;1782315;71;24968;-77
2021/01/09 08:15:18;;;;;;;20.78;15.00;;;-0.30;99.90;;;4.66;89.90;102303.54;1782395;71;24432;-78
2021/01/09 08:17:34;;;;;;;22.24;15.35;;;-0.30;99.90;;;4.74;88.97;102308.73;1784163;71;24537;-74
2021/01/09 08:19:51;;;;;;;22.67;16.16;;;-0.30;99.90;;;4.83;88.89;102306.67;1785139;71;24883;-76
2021/01/09 08:22:10;;;;;;;26.06;16.50;;;-0.20;99.90;;;4.82;88.71;102311.32;1787129;71;25060;-75
2021/01/09 08:24:29;;;;;;;24.60;16.29;;;-0.20;99.90;;;4.93;88.68;102312.84;1791512;71;24471;-74
2021/01/09 08:26:51;;;;;;;24.47;16.14;;;-0.10;99.90;;;5.13;89.40;102314.84;1786089;71;24424;-74
2021/01/09 08:29:09;;;;;;;22.76;16.31;;;0.00;99.90;;;5.08;89.49;102316.66;1748569;72;24458;-76
2021/01/09 08:31:26;;;;;;;24.25;16.24;;;0.10;99.90;;;5.15;89.41;102313.63;1756636;72;24564;-73
2021/01/09 08:33:47;;;;;;;25.88;16.30;;;0.10;99.90;;;5.13;89.36;102324.27;1801238;71;24865;-73
2021/01/09 08:36:05;;;;;;;27.17;16.24;;;0.20;99.90;;;5.15;89.33;102328.73;1784940;71;24503;-74
2021/01/09 08:38:28;;;;;;;24.06;16.14;;;0.20;99.90;;;5.22;89.04;102326.06;1784742;71;24840;-74
2021/01/09 08:40:44;;;;;;;25.29;16.29;;;0.30;99.90;;;5.40;89.85;102332.25;1784866;71;24523;-76
2021/01/09 08:43:07;;;;;;;23.88;15.97;;;0.30;99.90;;;5.51;89.01;102332.04;1771011;71;25172;-74
2021/01/09 08:45:39;;;;;;;24.46;15.57;;;0.40;99.90;;;5.48;89.36;102333.56;1777010;71;24474;-75
2021/01/09 08:47:55;;;;;;;23.70;15.86;;;0.40;99.90;;;5.45;89.08;102339.47;1777648;70;24906;-75
2021/01/09 08:50:16;;;;;;;23.49;16.72;;;0.50;99.90;;;5.55;89.55;102339.53;1774403;71;24911;-74
2021/01/09 08:52:34;;;;;;;25.37;14.64;;;0.50;99.90;;;5.41;89.21;102332.72;1777861;71;24467;-76
2021/01/09 08:54:53;;;;;;;22.86;16.71;;;0.50;99.90;;;5.44;88.60;102336.77;1761105;72;24465;-75
2021/01/09 08:57:10;;;;;;;23.52;16.26;;;0.60;99.90;;;5.66;89.74;102335.44;1767034;71;24478;-75
2021/01/09 08:59:27;;;;;;;23.69;16.59;;;0.60;99.90;;;5.67;89.55;102339.81;1770008;70;24535;-74
2021/01/09 09:01:47;;;;;;;22.88;16.60;;;0.70;99.90;;;5.77;90.18;102351.11;1772897;71;24492;-75
2021/01/09 09:04:07;;;;;;;22.05;15.34;;;0.80;99.90;;;5.93;89.98;102358.02;1782129;71;24841;-74
2021/01/09 09:06:30;;;;;;;24.71;16.02;;;0.90;99.90;;;5.99;88.90;102349.32;1771029;71;24564;-75
2021/01/09 09:08:49;;;;;;;20.74;16.10;;;0.90;99.90;;;6.06;89.79;102347.52;1770506;71;24548;-76
2021/01/09 09:11:06;;;;;;;19.89;15.65;;;1.00;99.90;;;6.05;89.62;102352.22;1785417;71;24457;-74
2021/01/09 09:13:26;;;;;;;22.91;16.37;;;1.10;99.90;;;6.00;89.77;102362.72;1777049;70;24429;-74
2021/01/09 09:15:42;;;;;;;21.00;16.39;;;1.10;99.90;;;5.80;90.23;102360.75;1768345;70;24530;-74
2021/01/09 09:18:01;;;;;;;21.77;16.70;;;1.20;99.90;;;5.80;89.99;102366.78;1762353;71;24497;-76
2021/01/09 09:20:19;;;;;;;23.84;16.30;;;1.20;99.90;;;5.94;90.52;102364.98;1782689;71;24539;-76
2021/01/09 09:22:37;;;;;;;21.78;16.16;;;1.30;99.90;;;6.07;90.89;102363.11;1777779;71;24446;-75
2021/01/09 09:24:53;;;;;;;17.55;14.57;;;1.40;99.90;;;5.91;90.78;102372.16;1776693;71;24425;-76
2021/01/09 09:27:27;;;;;;;20.77;14.67;;;1.40;99.90;;;5.93;90.69;102371.84;1735477;73;24488;-76
2021/01/09 09:29:45;;;;;;;21.03;14.79;;;1.40;99.90;;;6.00;91.28;102373.06;1774074;71;24934;-75
2021/01/09 09:32:02;;;;;;;17.75;14.50;;;1.50;99.90;;;5.97;91.13;102379.36;1770747;71;24433;-74
2021/01/09 09:34:20;;;;;;;19.42;14.54;;;1.50;99.90;;;6.01;91.13;102377.02;1771990;71;24500;-75
2021/01/09 09:36:41;;;;;;;17.32;13.98;;;1.50;99.90;;;6.03;91.37;102374.12;1775998;71;24491;-75